Flight Track Log - Related Links

Times and Time Zones

All times are in EDT time to prevent confusion due to time zone crossing. See the SLI421 flight status page for this flight to view local times or setup timezone preferences in your user account.

Time Position Orientation Groundspeed Altitude Reporting Facility
EDT Latitude Longitude Course Direction KTS MPH feet Rate Location/Type
Thu 03:02:53 PM 25.7983 -80.2697 112° Southeast 157 181 900  Level Miami Center
Thu 03:04:19 PM 25.7689 -80.1883 112° Southeast 264 304 3,700 2,153 Climbing Miami Center
Thu 03:05:43 PM 25.6756 -80.1489 159° South 292 336 7,000 2,167 Climbing Miami Center
Thu 03:06:43 PM 25.6019 -80.1767 199° South 279 321 8,900 2,150 Climbing Miami Center
Thu 03:07:43 PM 25.5300 -80.2186 208° Southwest 279 321 11,300 2,200 Climbing Miami Center
Thu 03:08:43 PM 25.4539 -80.2578 205° Southwest 305 351 13,300 2,350 Climbing Miami Center
Thu 03:09:43 PM 25.3692 -80.3083 208° Southwest 332 382 16,000 2,550 Climbing Miami Center
Thu 03:10:43 PM 25.3064 -80.3961 232° Southwest 350 403 18,400 2,350 Climbing Miami Center
Thu 03:11:43 PM 25.2539 -80.4981 240° Southwest 362 417 20,700 2,250 Climbing Miami Center
Thu 03:12:43 PM 25.1992 -80.5997 239° Southwest 382 440 22,900 1,900 Climbing Miami Center
Thu 03:13:43 PM 25.1400 -80.7081 239° Southwest 394 453 24,500 1,600 Climbing Miami Center
Thu 03:14:43 PM 25.0828 -80.8164 240° Southwest 409 471 26,100 1,500 Climbing Miami Center
Thu 03:15:43 PM 25.0233 -80.9292 240° Southwest 414 476 27,500 1,250 Climbing Miami Center
Thu 03:16:43 PM 24.9572 -81.0461 238° Southwest 431 496 28,600 1,300 Climbing Miami Center
Thu 03:17:43 PM 24.8933 -81.1653 239° Southwest 439 505 30,100 1,750 Climbing Miami Center
Thu 03:18:43 PM 24.8294 -81.2819 239° Southwest 444 511 32,100 1,700 Climbing Miami Center
Thu 03:19:43 PM 24.7653 -81.3986 239° Southwest 444 511 33,500 1,550 Climbing Miami Center
Thu 03:20:43 PM 24.7011 -81.5128 238° Southwest 444 511 35,200 1,250 Climbing Miami Center
Thu 03:21:43 PM 24.6392 -81.6225 238° Southwest 431 496 36,000 400 Climbing Miami Center
Thu 03:22:43 PM 24.5769 -81.7386 240° Southwest 441 507 36,000  Level Miami Center
Thu 03:23:43 PM 24.5078 -81.8683 240° Southwest 446 513 36,000  Level Miami Center
Thu 03:24:43 PM 24.4689 -81.9717 248° West 434 499 36,000  Level Miami Center
Thu 03:25:43 PM 24.4208 -82.0953 247° West 434 499 36,000  Level Miami Center
Thu 03:26:43 PM 24.3686 -82.2114 244° Southwest 439 505 36,000  Level Miami Center
Thu 03:27:43 PM 24.3161 -82.3300 244° Southwest 439 505 36,000  Level Miami Center
Thu 03:28:43 PM 24.2639 -82.4461 244° Southwest 434 499 36,000  Level Miami Center
Thu 03:29:43 PM 24.2136 -82.5622 245° Southwest 434 499 36,000  Level Miami Center
Thu 03:30:43 PM 24.1611 -82.6781 244° Southwest 434 499 36,000  Level Miami Center
Thu 03:31:43 PM 24.1125 -82.7964 246° West 434 499 36,000  Level Miami Center
Thu 03:32:43 PM 24.0639 -82.9144 246° West 434 499 36,000  Level Miami Center
Thu 03:33:43 PM 24.0092 -83.0322 243° Southwest 439 505 36,000  Level Miami Center
Thu 03:35:00 PM 23.9413 -83.1704 245° Southwest  Level FlightAware
Thu 03:42:00 PM 23.6051 -83.9151 244° Southwest  Level FlightAware
Thu 03:43:00 PM 23.5569 -84.0212 244° Southwest  Level FlightAware
Thu 03:44:00 PM 23.5086 -84.1273 244° Southwest  Level FlightAware
Thu 03:45:00 PM 23.4603 -84.2333 244° Southwest  Level FlightAware
Thu 03:46:00 PM 23.4119 -84.3392 244° Southwest  Level FlightAware
Thu 03:47:00 PM 23.3634 -84.4450 243° Southwest  Level FlightAware
Thu 03:48:00 PM 23.3148 -84.5508 243° Southwest  Level FlightAware
Thu 03:49:00 PM 23.2662 -84.6565 243° Southwest  Level FlightAware
Thu 03:50:00 PM 23.2175 -84.7621 243° Southwest  Level FlightAware
Thu 03:51:00 PM 23.1668 -84.8665 242° Southwest  Level FlightAware
Thu 03:52:00 PM 23.1149 -84.9702 241° Southwest  Level FlightAware
Thu 03:53:00 PM 23.0643 -85.0746 243° Southwest  Level FlightAware
Thu 03:54:00 PM 23.0141 -85.1792 242° Southwest  Level FlightAware
Thu 03:55:00 PM 22.9638 -85.2838 242° Southwest  Level FlightAware
Thu 03:56:00 PM 22.9135 -85.3882 242° Southwest  Level FlightAware
Thu 03:57:00 PM 22.8631 -85.4926 242° Southwest  Level FlightAware
Thu 03:58:00 PM 22.8127 -85.5969 242° Southwest  Level FlightAware
Thu 03:59:00 PM 22.7621 -85.7011 242° Southwest  Level FlightAware
Thu 04:00:00 PM 22.7115 -85.8053 242° Southwest  Level FlightAware
Thu 04:01:00 PM 22.6609 -85.9094 242° Southwest  Level FlightAware
Thu 04:02:00 PM 22.6107 -86.0137 245° Southwest  Level FlightAware
Thu 04:03:00 PM 22.5644 -86.1200 245° Southwest  Level FlightAware
Thu 04:04:00 PM 22.5180 -86.2263 245° Southwest  Level FlightAware
Thu 04:05:00 PM 22.4715 -86.3325 245° Southwest  Level FlightAware
Thu 04:06:00 PM 22.4250 -86.4386 245° Southwest  Level FlightAware
Thu 04:07:00 PM 22.3781 -86.5445 243° Southwest  Level FlightAware
Thu 04:08:00 PM 22.3291 -86.6493 243° Southwest  Level FlightAware
Thu 04:09:00 PM 22.2800 -86.7539 243° Southwest  Level FlightAware
Thu 04:10:00 PM 22.2308 -86.8585 243° Southwest  Level FlightAware
Thu 04:11:00 PM 22.1815 -86.9630 243° Southwest  Level FlightAware
Thu 04:12:00 PM 22.1322 -87.0675 243° Southwest  Level FlightAware
Thu 04:13:00 PM 22.0829 -87.1718 243° Southwest  Level FlightAware
Thu 04:14:00 PM 22.0334 -87.2761 243° Southwest  Level FlightAware
Thu 04:15:00 PM 21.9905 -87.3665 243° Southwest  Level FlightAware
Thu 04:16:00 PM 21.9501 -87.4581 247° West  Level FlightAware
Thu 04:17:00 PM 21.9088 -87.5491 242° Southwest  Level FlightAware
Thu 04:18:00 PM 21.8642 -87.6384 242° Southwest  Level FlightAware
Thu 04:19:00 PM 21.8195 -87.7276 242° Southwest  Level FlightAware
Thu 04:20:00 PM 21.7862 -87.8217 255° West  Level FlightAware
Thu 04:21:00 PM 21.7383 -87.9083 237° Southwest  Level FlightAware
Thu 04:22:00 PM 21.7063 -88.0027 240° Southwest  Level FlightAware
Thu 04:23:00 PM 21.6591 -88.0903 240° Southwest  Level FlightAware
Thu 04:24:00 PM 21.6119 -88.1779 240° Southwest  Level FlightAware
Thu 04:25:00 PM 21.5686 -88.2677 245° Southwest  Level FlightAware
Thu 04:26:00 PM 21.5293 -88.3596 245° Southwest  Level FlightAware
Thu 04:27:00 PM 21.4899 -88.4515 245° Southwest  Level FlightAware
Thu 04:28:00 PM 21.4529 -88.5442 242° Southwest  Level FlightAware
Thu 04:29:00 PM 21.4085 -88.6333 242° Southwest  Level FlightAware
Thu 04:30:00 PM 21.3640 -88.7224 242° Southwest  Level FlightAware
Thu 04:31:00 PM 21.3194 -88.8114 242° Southwest  Level FlightAware
Thu 04:32:00 PM 21.2762 -88.9011 247° West  Level FlightAware
Thu 04:33:00 PM 21.2391 -88.9939 247° West  Level FlightAware
Thu 04:34:00 PM 21.1991 -89.0852 242° Southwest  Level FlightAware
Thu 04:35:00 PM 21.1547 -89.1741 242° Southwest  Level FlightAware
Thu 04:36:00 PM 21.1112 -89.2636 247° West  Level FlightAware
Thu 04:37:00 PM 21.0707 -89.3543 237° Southwest  Level FlightAware
Thu 04:38:00 PM 21.0289 -89.4422 242° Southwest  Level FlightAware
Thu 04:39:00 PM 20.9845 -89.5311 242° Southwest  Level FlightAware
Thu 04:40:00 PM 20.9445 -89.6222 247° West  Level FlightAware
Thu 04:41:00 PM 20.9167 -89.6500 180° South  Level FlightAware
Thu 04:42:00 PM 20.9370 -89.6577 180° South  Level Estimated

Login

Don't have an account? Register now (free) for customized features, flight alerts, and more!